Time;durP1;ratioP1;P1;durP2;ratioP2;P2;SDS_P1;SDS_P2;PMS_P1;PMS_P2;Temp;Humidity;BMP_temperature;BMP_pressure;BME280_temperature;BME280_humidity;BME280_pressure;Samples;Min_cycle;Max_cycle;Signal;HPM_P1;HPM_P2
2022/04/06 00:00:28;;;;;;;;;;;;;;;6.54;82.03;98848.73;2120418;83;20144;-81
2022/04/06 00:03:29;;;;;;;;;;;;;;;6.55;82.32;98844.28;2120015;83;20148;-81
2022/04/06 00:06:30;;;;;;;;;;;;;;;6.56;82.23;98852.03;2121543;83;20130;-83
2022/04/06 00:09:31;;;;;;;;;;;;;;;6.57;82.23;98849.70;2117903;83;20630;-80
2022/04/06 00:12:32;;;;;;;;;;;;;;;6.57;82.41;98852.84;2121257;83;20485;-82
2022/04/06 00:15:34;;;;;;;;;;;;;;;6.60;82.38;98853.31;2117800;83;20127;-82
2022/04/06 00:18:34;;;;;;;;;;;;;;;6.61;82.41;98843.08;2119917;83;20163;-81
2022/04/06 00:21:35;;;;;;;;;;;;;;;6.61;82.35;98840.45;2116128;83;20132;-83
2022/04/06 00:24:36;;;;;;;;;;;;;;;6.61;82.44;98840.45;2120829;83;20164;-81
2022/04/06 00:27:37;;;;;;;;;;;;;;;6.65;82.58;98855.45;2121745;83;20144;-79
2022/04/06 00:30:38;;;;;;;;;;;;;;;6.67;82.52;98858.23;2119775;83;20142;-82
2022/04/06 00:33:39;;;;;;;;;;;;;;;6.67;82.70;98849.48;2120770;83;20167;-82
2022/04/06 00:36:40;;;;;;;;;;;;;;;6.68;82.73;98851.14;2115540;83;20169;-83
2022/04/06 00:39:41;;;;;;;;;;;;;;;6.69;82.72;98858.86;2124570;83;20133;-83
2022/04/06 00:42:42;;;;;;;;;;;;;;;6.70;82.70;98856.57;2120652;83;20146;-81
2022/04/06 00:45:44;;;;;;;;;;;;;;;6.71;83.00;98857.38;2115844;83;20451;-80
2022/04/06 00:48:45;;;;;;;;;;;;;;;6.73;82.88;98853.59;2120923;83;20185;-82
2022/04/06 00:51:47;;;;;;;;;;;;;;;6.76;83.20;98852.89;2121239;83;20164;-83
2022/04/06 00:54:49;;;;;;;;;;;;;;;6.78;83.03;98853.55;2118858;83;20831;-85
2022/04/06 00:57:50;;;;;;;;;;;;;;;6.80;83.19;98852.89;2121408;83;20135;-84
2022/04/06 01:00:50;;;;;;;;;;;;;;;6.82;83.07;98858.82;2112683;83;20207;-84
2022/04/06 01:03:51;;;;;;;;;;;;;;;6.84;82.94;98855.48;2123239;83;20177;-82
2022/04/06 01:06:53;;;;;;;;;;;;;;;6.84;83.00;98858.13;2116054;83;20154;-83
2022/04/06 01:09:54;;;;;;;;;;;;;;;6.87;82.85;98869.17;2119440;83;20322;-83
2022/04/06 01:12:56;;;;;;;;;;;;;;;6.87;82.84;98861.26;2119370;83;20490;-81
2022/04/06 01:15:57;;;;;;;;;;;;;;;6.87;82.88;98867.84;2115193;83;20681;-83
2022/04/06 01:18:58;;;;;;;;;;;;;;;6.90;82.92;98858.27;2117482;83;20144;-83
2022/04/06 01:21:59;;;;;;;;;;;;;;;6.93;82.90;98859.74;2120647;83;20482;-81
2022/04/06 01:25:01;;;;;;;;;;;;;;;6.95;82.87;98864.33;2117480;83;20510;-84
2022/04/06 01:28:02;;;;;;;;;;;;;;;6.98;82.82;98867.11;2118326;83;20202;-84
2022/04/06 01:31:03;;;;;;;;;;;;;;;7.00;82.71;98861.99;2121497;83;20222;-83
2022/04/06 01:34:04;;;;;;;;;;;;;;;7.02;82.62;98869.74;2114088;83;20170;-83
2022/04/06 01:37:06;;;;;;;;;;;;;;;7.05;82.60;98868.89;2122221;83;20178;-84
2022/04/06 01:40:08;;;;;;;;;;;;;;;7.05;82.47;98872.84;2122829;83;20429;-80
2022/04/06 01:43:10;;;;;;;;;;;;;;;7.06;82.38;98873.16;2121981;83;20140;-80
2022/04/06 01:46:11;;;;;;;;;;;;;;;7.08;82.41;98876.95;2121974;83;20101;-85
2022/04/06 01:52:32;;;;;;;;;;;;;;;7.10;82.39;98871.83;2118692;83;20182;-81
2022/04/06 01:55:33;;;;;;;;;;;;;;;7.13;82.30;98875.94;2123889;83;20167;-82
2022/04/06 01:58:33;;;;;;;;;;;;;;;7.15;82.30;98876.56;2117856;83;20144;-84
2022/04/06 02:01:36;;;;;;;;;;;;;;;7.18;82.15;98883.66;2121111;83;20182;-83
2022/04/06 02:04:38;;;;;;;;;;;;;;;7.22;82.22;98879.34;2120226;83;20276;-84
2022/04/06 02:07:39;;;;;;;;;;;;;;;7.24;82.07;98883.95;2122094;83;20165;-85
2022/04/06 02:10:40;;;;;;;;;;;;;;;7.27;81.99;98872.55;2118733;83;20178;-81
2022/04/06 02:13:41;;;;;;;;;;;;;;;7.29;81.98;98882.91;2125353;83;20136;-81
2022/04/06 02:16:42;;;;;;;;;;;;;;;7.30;81.93;98877.97;2118652;83;20153;-82
2022/04/06 02:19:44;;;;;;;;;;;;;;;7.32;81.86;98880.76;2115094;83;20178;-82
2022/04/06 02:22:45;;;;;;;;;;;;;;;7.32;81.88;98881.23;2121956;83;20491;-83
2022/04/06 02:25:45;;;;;;;;;;;;;;;7.32;82.06;98875.48;2118553;83;20162;-82
2022/04/06 02:28:46;;;;;;;;;;;;;;;7.33;82.01;98880.25;2125627;83;20541;-82
2022/04/06 02:31:47;;;;;;;;;;;;;;;7.34;82.30;98877.92;2123904;83;20121;-81
2022/04/06 02:34:48;;;;;;;;;;;;;;;7.35;82.23;98876.95;2121711;83;20183;-82
2022/04/06 02:37:49;;;;;;;;;;;;;;;7.35;82.25;98871.67;2116365;83;20147;-84
2022/04/06 02:40:50;;;;;;;;;;;;;;;7.35;82.37;98871.67;2115427;83;20186;-82
2022/04/06 02:43:51;;;;;;;;;;;;;;;7.36;82.40;98878.58;2122564;83;20210;-83
2022/04/06 02:46:52;;;;;;;;;;;;;;;7.34;82.28;98877.42;2122295;83;20137;-81
2022/04/06 02:49:53;;;;;;;;;;;;;;;7.35;82.41;98875.13;2119043;83;20623;-81
2022/04/06 02:52:54;;;;;;;;;;;;;;;7.34;82.38;98870.02;2122206;82;20196;-82
2022/04/06 02:55:55;;;;;;;;;;;;;;;7.32;82.28;98868.88;2132350;82;20197;-83
2022/04/06 02:58:56;;;;;;;;;;;;;;;7.33;82.31;98871.02;2125757;82;20443;-82
2022/04/06 03:01:57;;;;;;;;;;;;;;;7.34;82.30;98877.42;2129629;82;20517;-81
2022/04/06 03:04:57;;;;;;;;;;;;;;;7.34;82.19;98872.14;2127563;82;20181;-80
2022/04/06 03:07:58;;;;;;;;;;;;;;;7.34;82.15;98875.29;2126068;82;20132;-81
2022/04/06 03:10:59;;;;;;;;;;;;;;;7.36;82.19;98881.22;2130864;82;20150;-82
2022/04/06 03:14:00;;;;;;;;;;;;;;;7.35;82.24;98880.41;2129722;82;20684;-83
2022/04/06 03:17:01;;;;;;;;;;;;;;;7.37;82.11;98878.89;2128896;82;20220;-83
2022/04/06 03:20:03;;;;;;;;;;;;;;;7.37;82.05;98888.94;2131682;82;20177;-79
2022/04/06 03:23:04;;;;;;;;;;;;;;;7.37;82.01;98882.34;2130678;82;20128;-85
2022/04/06 03:26:05;;;;;;;;;;;;;;;7.36;82.04;98878.58;2126531;82;20241;-83
2022/04/06 03:29:06;;;;;;;;;;;;;;;7.37;82.12;98880.21;2125944;82;20118;-82
2022/04/06 03:32:08;;;;;;;;;;;;;;;7.38;82.09;98875.27;2130629;82;20149;-84
2022/04/06 03:35:08;;;;;;;;;;;;;;;7.37;82.16;98881.53;2132000;82;20120;-85
2022/04/06 03:38:10;;;;;;;;;;;;;;;7.37;82.10;98881.53;2126465;82;20151;-83
2022/04/06 03:41:10;;;;;;;;;;;;;;;7.36;82.17;98880.72;2124890;82;20519;-85
2022/04/06 03:44:11;;;;;;;;;;;;;;;7.37;82.19;98882.84;2125836;82;20130;-83
2022/04/06 03:47:12;;;;;;;;;;;;;;;7.38;82.08;98885.83;2124808;82;20326;-81
2022/04/06 03:50:14;;;;;;;;;;;;;;;7.40;82.10;98882.49;2126079;82;20512;-80
2022/04/06 03:53:15;;;;;;;;;;;;;;;7.41;82.09;98884.16;2123298;82;20189;-85
2022/04/06 03:56:16;;;;;;;;;;;;;;;7.40;82.20;98886.45;2109427;83;20169;-82
2022/04/06 03:59:17;;;;;;;;;;;;;;;7.38;82.39;98887.15;2114890;83;20203;-85
2022/04/06 04:02:17;;;;;;;;;;;;;;;7.35;82.35;98890.14;2113547;83;20166;-82
2022/04/06 04:05:18;;;;;;;;;;;;;;;7.31;82.52;98889.65;2112155;83;20170;-83
2022/04/06 04:08:22;;;;;;;;;;;;;;;7.29;82.58;98889.50;2111313;83;20157;-82
2022/04/06 04:11:22;;;;;;;;;;;;;;;7.24;82.78;98885.27;2108714;83;20122;-84
2022/04/06 04:14:23;;;;;;;;;;;;;;;7.21;82.81;98887.76;2114446;83;20521;-81
2022/04/06 04:17:24;;;;;;;;;;;;;;;7.19;82.97;98894.52;2115108;83;20172;-82
2022/04/06 04:20:25;;;;;;;;;;;;;;;7.19;83.14;98891.06;2114564;83;20469;-84
2022/04/06 04:23:26;;;;;;;;;;;;;;;7.17;83.23;98895.69;2127985;83;20125;-82
2022/04/06 04:26:27;;;;;;;;;;;;;;;7.15;83.30;98897.20;2097859;83;20224;-82
2022/04/06 04:29:28;;;;;;;;;;;;;;;7.12;83.40;98900.19;2105322;83;20111;-82
2022/04/06 04:32:29;;;;;;;;;;;;;;;7.12;83.67;98901.50;2100909;83;20158;-85
2022/04/06 04:35:30;;;;;;;;;;;;;;;7.10;83.71;98901.34;2100911;83;20154;-82
2022/04/06 04:38:31;;;;;;;;;;;;;;;7.09;83.83;98904.46;2061301;84;21449;-83
2022/04/06 04:41:33;;;;;;;;;;;;;;;7.09;83.82;98901.82;2097040;84;20187;-82
2022/04/06 04:44:35;;;;;;;;;;;;;;;7.11;83.83;98895.06;2092591;84;20135;-82
2022/04/06 04:47:43;;;;;;;;;;;;;;;7.12;83.87;98898.02;2095108;84;20127;-85
2022/04/06 04:50:44;;;;;;;;;;;;;;;7.12;83.88;98901.50;2100995;83;20166;-80
2022/04/06 04:53:46;;;;;;;;;;;;;;;7.14;83.92;98909.23;2118494;83;20162;-80
2022/04/06 04:56:47;;;;;;;;;;;;;;;7.16;83.93;98905.42;2124135;82;20472;-81
2022/04/06 04:59:47;;;;;;;;;;;;;;;7.17;83.97;98900.96;2124526;82;20132;-81
2022/04/06 05:02:49;;;;;;;;;;;;;;;7.19;84.04;98906.39;2122960;83;20465;-82
2022/04/06 05:05:53;;;;;;;;;;;;;;;7.23;84.09;98908.67;2129472;82;20608;-80
2022/04/06 05:08:53;;;;;;;;;;;;;;;7.24;84.09;98907.20;2127001;82;20213;-82
2022/04/06 05:11:54;;;;;;;;;;;;;;;7.27;84.08;98910.80;2130917;82;20956;-83
2022/04/06 05:14:54;;;;;;;;;;;;;;;7.30;84.07;98915.72;2126856;82;20478;-80
2022/04/06 05:17:55;;;;;;;;;;;;;;;7.34;84.05;98914.88;2126164;83;20138;-81
2022/04/06 05:20:57;;;;;;;;;;;;;;;7.38;84.05;98914.36;2126152;83;20230;-82
2022/04/06 05:23:59;;;;;;;;;;;;;;;7.42;84.07;98924.05;2122233;83;20158;-81
2022/04/06 05:27:02;;;;;;;;;;;;;;;7.56;84.64;98912.73;2123244;83;20486;-84
2022/04/06 05:30:04;;;;;;;;;;;;;;;7.70;84.18;98922.20;2123257;82;20500;-81
2022/04/06 05:33:06;;;;;;;;;;;;;;;7.87;84.08;98923.70;2125579;83;20154;-81
2022/04/06 05:36:06;;;;;;;;;;;;;;;7.93;83.85;98921.67;2126723;83;20330;-81
2022/04/06 05:39:08;;;;;;;;;;;;;;;7.99;83.47;98928.88;2122692;82;20162;-81
2022/04/06 05:42:09;;;;;;;;;;;;;;;8.00;83.43;98931.86;2120571;83;20612;-80
2022/04/06 05:45:11;;;;;;;;;;;;;;;8.02;83.39;98934.30;2129136;83;20129;-81
2022/04/06 05:48:12;;;;;;;;;;;;;;;8.09;83.63;98936.05;2124513;83;20211;-81
2022/04/06 05:51:13;;;;;;;;;;;;;;;8.20;83.42;98936.63;2125533;83;20521;-81
2022/04/06 05:54:14;;;;;;;;;;;;;;;8.26;83.24;98935.39;2118898;82;20183;-81
2022/04/06 05:57:14;;;;;;;;;;;;;;;8.29;83.09;98932.89;2109607;83;20508;-81
2022/04/06 06:00:16;;;;;;;;;;;;;;;8.32;83.09;98935.17;2109742;83;20141;-81
2022/04/06 06:03:17;;;;;;;;;;;;;;;8.40;83.02;98937.77;2107191;83;20509;-82
2022/04/06 06:06:18;;;;;;;;;;;;;;;8.43;82.84;98949.30;2106609;83;20154;-83
2022/04/06 06:09:19;;;;;;;;;;;;;;;8.45;82.74;98949.95;2109275;83;20163;-83
2022/04/06 06:12:20;;;;;;;;;;;;;;;8.51;82.77;98944.44;2111054;83;20603;-81
2022/04/06 06:15:22;;;;;;;;;;;;;;;8.59;82.70;98944.82;2108911;83;20156;-83
2022/04/06 06:18:24;;;;;;;;;;;;;;;8.59;82.32;98950.11;2110803;83;20171;-81
2022/04/06 06:21:27;;;;;;;;;;;;;;;8.47;82.09;98955.03;2109860;83;20141;-81
2022/04/06 06:24:28;;;;;;;;;;;;;;;8.35;82.22;98953.31;2109738;83;20481;-83
2022/04/06 06:27:29;;;;;;;;;;;;;;;8.27;82.42;98958.17;2110954;83;20148;-81
2022/04/06 06:30:30;;;;;;;;;;;;;;;8.23;82.56;98962.19;2108958;83;20170;-81
2022/04/06 06:33:31;;;;;;;;;;;;;;;8.23;82.69;98953.45;2106503;83;20169;-81
2022/04/06 06:36:32;;;;;;;;;;;;;;;8.25;82.77;98955.38;2107443;83;20505;-80
2022/04/06 06:39:33;;;;;;;;;;;;;;;8.29;82.83;98958.00;2110448;83;20134;-82
2022/04/06 06:42:34;;;;;;;;;;;;;;;8.31;82.86;98962.11;2108634;83;20190;-81
2022/04/06 06:45:35;;;;;;;;;;;;;;;8.34;82.96;98958.29;2109912;83;20465;-82
2022/04/06 06:48:36;;;;;;;;;;;;;;;8.38;82.94;98966.16;2112379;83;20134;-81
2022/04/06 06:51:39;;;;;;;;;;;;;;;8.44;82.97;98958.86;2111724;83;20504;-83
2022/04/06 06:54:40;;;;;;;;;;;;;;;8.48;82.89;98962.80;2119424;83;20467;-81
2022/04/06 06:57:41;;;;;;;;;;;;;;;8.52;82.83;98965.39;2121677;82;20168;-80
2022/04/06 07:00:42;;;;;;;;;;;;;;;8.57;82.77;98964.03;2130804;83;20146;-83
2022/04/06 07:03:43;;;;;;;;;;;;;;;8.61;82.65;98971.91;2125164;83;20609;-81
2022/04/06 07:06:44;;;;;;;;;;;;;;;8.65;82.55;98973.20;2127556;82;20170;-82
2022/04/06 07:09:45;;;;;;;;;;;;;;;8.70;82.53;98971.66;2124539;83;20160;-81
2022/04/06 07:12:46;;;;;;;;;;;;;;;8.79;82.51;98971.56;2125297;83;20160;-84
2022/04/06 07:15:47;;;;;;;;;;;;;;;8.87;82.44;98966.16;2129285;82;20561;-83
2022/04/06 07:18:48;;;;;;;;;;;;;;;8.94;82.35;98965.75;2124683;83;20156;-84
2022/04/06 07:21:49;;;;;;;;;;;;;;;9.00;82.17;98974.77;2122818;83;20204;-80
2022/04/06 07:24:50;;;;;;;;;;;;;;;9.05;82.18;98973.22;2126424;82;20128;-83
2022/04/06 07:27:51;;;;;;;;;;;;;;;9.09;82.02;98977.63;2123167;83;20146;-82
2022/04/06 07:30:52;;;;;;;;;;;;;;;9.08;81.80;98968.88;2123954;82;20180;-82
2022/04/06 07:33:54;;;;;;;;;;;;;;;9.09;81.76;98967.05;2124052;82;20161;-83
2022/04/06 07:36:55;;;;;;;;;;;;;;;9.17;81.74;98964.30;2127627;82;20185;-84
2022/04/06 07:39:56;;;;;;;;;;;;;;;9.23;81.54;98971.48;2122985;82;20190;-83
2022/04/06 07:42:57;;;;;;;;;;;;;;;9.25;81.19;98977.42;2123813;82;20231;-83
2022/04/06 07:45:58;;;;;;;;;;;;;;;9.29;81.44;98973.41;2125263;83;20200;-81
2022/04/06 07:48:59;;;;;;;;;;;;;;;9.40;81.43;98980.02;2123644;83;20137;-82
2022/04/06 07:52:00;;;;;;;;;;;;;;;9.51;81.53;98979.53;2124896;83;20161;-83
2022/04/06 07:55:02;;;;;;;;;;;;;;;9.61;81.59;98973.95;2128166;83;20467;-83
2022/04/06 07:58:03;;;;;;;;;;;;;;;9.70;81.27;98974.14;2123518;83;20464;-82
2022/04/06 08:01:06;;;;;;;;;;;;;;;9.75;81.15;98978.88;2126273;83;20207;-81
2022/04/06 08:04:06;;;;;;;;;;;;;;;9.77;81.00;98972.86;2124168;82;20157;-83
2022/04/06 08:07:07;;;;;;;;;;;;;;;9.77;80.87;98971.54;2127100;82;20161;-80
2022/04/06 08:10:09;;;;;;;;;;;;;;;9.81;80.78;98975.47;2129318;82;20239;-83
2022/04/06 08:13:11;;;;;;;;;;;;;;;9.79;80.65;98983.59;2128614;82;20471;-82
2022/04/06 08:16:12;;;;;;;;;;;;;;;9.78;80.68;98981.96;2124507;83;20120;-84
2022/04/06 08:19:13;;;;;;;;;;;;;;;9.79;80.70;98979.62;2126431;83;20431;-82
2022/04/06 08:22:15;;;;;;;;;;;;;;;9.78;80.53;98989.91;2124043;83;20156;-82
2022/04/06 08:25:19;;;;;;;;;;;;;;;9.78;80.43;98986.45;2125445;83;20132;-83
2022/04/06 08:28:20;;;;;;;;;;;;;;;9.80;80.43;98990.55;2124285;83;20594;-83
2022/04/06 08:31:21;;;;;;;;;;;;;;;9.83;80.39;98998.62;2124381;83;20128;-82
2022/04/06 08:34:22;;;;;;;;;;;;;;;9.87;80.16;98998.55;2128413;83;20139;-83
2022/04/06 08:37:24;;;;;;;;;;;;;;;9.89;79.72;98997.86;2124517;83;20167;-82
2022/04/06 08:40:26;;;;;;;;;;;;;;;9.86;79.64;99003.03;2127722;83;20312;-82
2022/04/06 08:43:27;;;;;;;;;;;;;;;9.84;79.73;99005.55;2126243;83;20156;-83
2022/04/06 08:46:31;;;;;;;;;;;;;;;9.79;79.48;99004.78;2124679;83;20151;-85
2022/04/06 08:49:35;;;;;;;;;;;;;;;9.76;79.69;99006.48;2124817;83;20527;-82
2022/04/06 08:52:38;;;;;;;;;;;;;;;9.74;79.72;99016.95;2122287;83;20485;-84
2022/04/06 08:55:39;;;;;;;;;;;;;;;9.71;79.63;99016.01;2113442;83;20132;-84
2022/04/06 08:58:41;;;;;;;;;;;;;;;9.70;79.60;99015.70;2108691;83;20522;-83
2022/04/06 09:01:42;;;;;;;;;;;;;;;9.67;79.49;99012.92;2105322;83;20143;-83
2022/04/06 09:04:43;;;;;;;;;;;;;;;9.65;79.42;99013.60;2104357;83;20163;-83
2022/04/06 09:07:44;;;;;;;;;;;;;;;9.63;79.38;99016.45;2109036;83;20121;-84
2022/04/06 09:10:45;;;;;;;;;;;;;;;9.63;79.44;99009.02;2106501;83;20176;-83
2022/04/06 09:13:49;;;;;;;;;;;;;;;9.63;79.38;99011.16;2114351;83;20203;-84
2022/04/06 09:16:53;;;;;;;;;;;;;;;9.64;79.50;99015.95;2089710;83;20976;-82
2022/04/06 09:19:57;;;;;;;;;;;;;;;9.64;79.41;99012.79;2110719;83;20159;-83
2022/04/06 09:23:05;;;;;;;;;;;;;;;9.64;79.58;99010.14;2102590;83;20186;-82
2022/04/06 09:26:08;;;;;;;;;;;;;;;9.66;79.49;99011.30;2108530;83;20139;-82
2022/04/06 09:29:13;;;;;;;;;;;;;;;9.72;79.51;99013.19;2082576;83;20159;-82
2022/04/06 09:32:14;;;;;;;;;;;;;;;9.76;79.60;99002.52;2111498;83;20463;-84
2022/04/06 09:35:26;;;;;;;;;;;;;;;9.83;79.65;98997.30;2106063;83;20116;-83
2022/04/06 09:38:31;;;;;;;;;;;;;;;9.91;79.49;99003.80;2114865;83;20162;-82
2022/04/06 09:41:30;;;;;;;;;;;;;;;9.96;79.55;99004.03;2105574;83;20157;-84
2022/04/06 09:47:54;;;;;;;;;;;;;;;10.01;79.54;98999.50;2108952;83;20440;-82
2022/04/06 09:50:56;;;;;;;;;;;;;;;10.06;79.50;98995.78;2103600;83;20144;-82
2022/04/06 09:54:01;;;;;;;;;;;;;;;10.12;79.45;98991.55;2107565;83;20156;-84
2022/04/06 09:57:01;;;;;;;;;;;;;;;10.11;79.42;98989.41;2114322;83;20679;-81
2022/04/06 10:00:03;;;;;;;;;;;;;;;10.16;79.28;98987.48;2105060;83;20131;-81
2022/04/06 10:03:08;;;;;;;;;;;;;;;10.20;79.42;98984.78;2107924;83;20159;-83
2022/04/06 10:06:09;;;;;;;;;;;;;;;10.30;79.53;98988.78;2107097;83;20135;-82
2022/04/06 10:09:15;;;;;;;;;;;;;;;10.40;79.37;98980.98;2104688;83;20700;-82
2022/04/06 10:12:17;;;;;;;;;;;;;;;10.43;79.14;98971.31;2109088;83;20164;-83
2022/04/06 10:15:18;;;;;;;;;;;;;;;10.44;79.02;98972.43;2104928;83;20175;-85
2022/04/06 10:18:19;;;;;;;;;;;;;;;10.44;78.85;98972.94;2110476;83;20168;-83
2022/04/06 10:21:42;;;;;;;;;;;;;;;10.40;78.73;98970.38;2108163;83;20228;-83
2022/04/06 10:24:56;;;;;;;;;;;;;;;10.34;78.82;98969.83;2105392;83;20481;-81
2022/04/06 10:27:58;;;;;;;;;;;;;;;10.34;78.97;98963.20;2109358;83;20191;-82
2022/04/06 10:31:17;;;;;;;;;;;;;;;10.41;79.11;98959.56;2105489;83;20167;-83
2022/04/06 10:34:27;;;;;;;;;;;;;;;10.48;78.93;98958.30;2109154;83;20131;-83
2022/04/06 10:37:28;;;;;;;;;;;;;;;10.55;78.86;98959.14;2109319;83;20116;-82
2022/04/06 10:40:31;;;;;;;;;;;;;;;10.57;78.62;98956.30;2105177;83;20648;-82
2022/04/06 10:43:44;;;;;;;;;;;;;;;10.54;78.69;98958.84;2111300;83;20470;-83
2022/04/06 10:46:42;;;;;;;;;;;;;;;10.55;78.78;98959.14;2104642;83;20212;-83
2022/04/06 10:49:45;;;;;;;;;;;;;;;10.52;78.63;98959.53;2106175;83;20156;-83
2022/04/06 10:52:46;;;;;;;;;;;;;;;10.50;78.58;98960.23;2105168;83;20120;-82
2022/04/06 10:56:06;;;;;;;;;;;;;;;10.59;78.76;98957.75;2096209;83;20160;-80
2022/04/06 10:59:08;;;;;;;;;;;;;;;10.79;78.64;98964.50;2089401;84;20102;-82
2022/04/06 11:02:14;;;;;;;;;;;;;;;11.09;77.98;98950.42;2091090;84;20135;-82
2022/04/06 11:05:44;;;;;;;;;;;;;;;11.37;76.82;98950.31;2090782;84;20168;-81
2022/04/06 11:12:22;;;;;;;;;;;;;;;11.83;75.64;98939.48;2087839;84;20326;-82
2022/04/06 11:15:37;;;;;;;;;;;;;;;11.97;74.86;98934.51;2083676;84;20172;-82
2022/04/06 11:18:52;;;;;;;;;;;;;;;12.04;74.77;98942.47;2099601;84;20165;-80
2022/04/06 11:21:55;;;;;;;;;;;;;;;12.03;72.80;98927.03;2085526;84;20123;-81
2022/04/06 11:24:57;;;;;;;;;;;;;;;12.01;72.96;98934.39;2086505;84;20133;-82
2022/04/06 11:28:06;;;;;;;;;;;;;;;12.03;72.42;98932.36;2091009;84;20139;-84
2022/04/06 11:31:07;;;;;;;;;;;;;;;12.15;71.78;98925.90;2082907;84;20156;-82
2022/04/06 11:34:08;;;;;;;;;;;;;;;12.36;72.77;98927.53;2086955;84;20487;-82
2022/04/06 11:37:09;;;;;;;;;;;;;;;12.61;71.49;98925.52;2087195;84;20160;-83
2022/04/06 11:40:11;;;;;;;;;;;;;;;12.87;72.19;98920.64;2086241;84;20154;-81
2022/04/06 11:43:12;;;;;;;;;;;;;;;13.04;71.18;98915.66;2085134;84;20188;-81
2022/04/06 11:46:14;;;;;;;;;;;;;;;13.06;69.80;98918.91;2082966;84;20205;-81
2022/04/06 11:49:20;;;;;;;;;;;;;;;12.98;68.97;98913.33;2091511;84;20122;-82
2022/04/06 11:52:21;;;;;;;;;;;;;;;12.94;69.42;98905.44;2088823;84;20168;-82
2022/04/06 11:55:26;;;;;;;;;;;;;;;12.82;68.63;98901.30;2098029;83;20165;-82
2022/04/06 11:58:39;;;;;;;;;;;;;;;12.82;68.85;98898.63;2106176;83;20174;-81
2022/04/06 12:01:42;;;;;;;;;;;;;;;12.79;68.29;98897.73;2110639;83;20148;-82
2022/04/06 12:04:43;;;;;;;;;;;;;;;12.77;68.96;98899.25;2108125;83;20454;-82
2022/04/06 12:07:45;;;;;;;;;;;;;;;12.81;68.68;98897.02;2110903;83;20132;-82
2022/04/06 12:10:48;;;;;;;;;;;;;;;12.84;68.34;98897.92;2109432;83;20126;-82
2022/04/06 12:13:49;;;;;;;;;;;;;;;12.85;67.99;98894.22;2111981;83;20142;-81
2022/04/06 12:16:51;;;;;;;;;;;;;;;12.85;67.62;98895.55;2110331;83;20186;-81
2022/04/06 12:19:52;;;;;;;;;;;;;;;12.80;67.42;98884.71;2112245;83;20162;-81
2022/04/06 12:23:00;;;;;;;;;;;;;;;12.85;67.75;98883.57;2112170;83;20166;-82
2022/04/06 12:26:09;;;;;;;;;;;;;;;12.93;66.58;98875.34;2114759;83;20322;-82
2022/04/06 12:29:14;;;;;;;;;;;;;;;13.01;67.11;98876.44;2109892;83;20159;-82
2022/04/06 12:32:15;;;;;;;;;;;;;;;13.17;66.03;98865.78;2110283;83;20587;-82
2022/04/06 12:35:18;;;;;;;;;;;;;;;13.19;64.57;98854.41;2108895;83;20154;-81
2022/04/06 12:38:20;;;;;;;;;;;;;;;13.15;65.05;98854.55;2108715;83;20144;-82
2022/04/06 12:41:22;;;;;;;;;;;;;;;13.20;62.64;98859.21;2113031;83;20136;-82
2022/04/06 12:44:23;;;;;;;;;;;;;;;13.22;63.99;98862.48;2108002;83;20191;-82
2022/04/06 12:47:25;;;;;;;;;;;;;;;13.25;62.89;98850.06;2108610;83;20138;-82
2022/04/06 12:50:30;;;;;;;;;;;;;;;13.22;62.80;98849.17;2115378;83;20113;-83
2022/04/06 12:53:31;;;;;;;;;;;;;;;13.24;63.54;98850.59;2108313;83;20143;-82
2022/04/06 12:56:33;;;;;;;;;;;;;;;13.21;62.50;98839.55;2117022;83;20186;-83
2022/04/06 12:59:43;;;;;;;;;;;;;;;13.18;62.96;98839.47;2121709;83;20112;-81
2022/04/06 13:02:50;;;;;;;;;;;;;;;13.25;61.86;98835.41;2125547;83;20130;-82
2022/04/06 13:05:51;;;;;;;;;;;;;;;13.47;63.29;98833.77;2102836;83;20171;-82
2022/04/06 13:08:53;;;;;;;;;;;;;;;13.62;62.60;98831.59;2124506;83;20128;-82
2022/04/06 13:11:53;;;;;;;;;;;;;;;13.72;62.87;98826.59;2124456;83;20180;-83
2022/04/06 13:14:56;;;;;;;;;;;;;;;13.86;62.52;98823.30;2123420;83;20907;-82
2022/04/06 13:17:57;;;;;;;;;;;;;;;13.92;61.85;98822.93;2127827;83;20143;-83
2022/04/06 13:20:58;;;;;;;;;;;;;;;13.94;62.08;98819.50;2129402;83;20466;-82
2022/04/06 13:24:01;;;;;;;;;;;;;;;13.91;60.85;98815.45;2125411;83;20162;-82
2022/04/06 13:27:03;;;;;;;;;;;;;;;13.76;59.67;98807.78;2121954;83;20135;-81
2022/04/06 13:30:06;;;;;;;;;;;;;;;13.69;60.24;98812.37;2127398;83;20138;-83
2022/04/06 13:33:07;;;;;;;;;;;;;;;13.68;60.53;98806.23;2125423;83;20585;-82
2022/04/06 13:36:08;;;;;;;;;;;;;;;13.68;60.13;98800.90;2126422;83;20171;-82
2022/04/06 13:39:09;;;;;;;;;;;;;;;13.70;60.75;98799.85;2125918;82;20176;-83
2022/04/06 13:42:10;;;;;;;;;;;;;;;13.74;60.72;98797.03;2123375;82;20157;-83
2022/04/06 13:45:11;;;;;;;;;;;;;;;13.77;60.26;98792.10;2125613;83;20177;-82
2022/04/06 13:48:12;;;;;;;;;;;;;;;13.84;60.66;98791.50;2117176;82;20152;-83
2022/04/06 13:51:13;;;;;;;;;;;;;;;13.91;60.77;98786.12;2126462;83;20169;-83
2022/04/06 13:54:16;;;;;;;;;;;;;;;13.92;60.31;98778.41;2099112;83;20133;-82
2022/04/06 13:57:17;;;;;;;;;;;;;;;13.94;60.11;98775.51;2113630;82;20156;-84
2022/04/06 14:00:18;;;;;;;;;;;;;;;13.98;59.39;98758.86;2111386;83;20171;-83
2022/04/06 14:03:20;;;;;;;;;;;;;;;14.01;59.45;98761.08;2111939;83;20157;-82
2022/04/06 14:06:21;;;;;;;;;;;;;;;14.06;60.08;98763.09;2091976;83;20180;-82
2022/04/06 14:09:22;;;;;;;;;;;;;;;14.06;58.86;98742.56;2109751;83;20162;-82
2022/04/06 14:12:23;;;;;;;;;;;;;;;14.03;57.92;98752.87;2114043;83;20176;-82
2022/04/06 14:15:24;;;;;;;;;;;;;;;14.04;58.97;98748.63;2110301;83;20174;-82
2022/04/06 14:18:25;;;;;;;;;;;;;;;14.07;58.32;98747.38;2105919;83;20148;-83
2022/04/06 14:21:33;;;;;;;;;;;;;;;14.16;58.09;98743.36;2111318;83;20170;-82
2022/04/06 14:24:32;;;;;;;;;;;;;;;14.27;57.05;98731.94;2110037;83;20597;-83
2022/04/06 14:27:34;;;;;;;;;;;;;;;14.33;55.78;98731.06;2109971;83;20136;-82
2022/04/06 14:30:35;;;;;;;;;;;;;;;14.39;54.77;98715.17;2108841;83;20206;-83
2022/04/06 14:33:38;;;;;;;;;;;;;;;14.42;55.05;98717.41;2109613;83;20162;-83
2022/04/06 14:36:52;;;;;;;;;;;;;;;14.38;54.21;98718.89;2106595;83;20137;-81
2022/04/06 14:40:12;;;;;;;;;;;;;;;;;;;;;
2022/04/06 14:43:18;;;;;;;;;;;;;;;;;;;;;
2022/04/06 14:46:19;;;;;;;;;;;;;;;14.25;53.77;98709.22;2083537;83;20743;-82
2022/04/06 14:53:03;;;;;;;;;;;;;;;;;;;;;
2022/04/06 14:56:20;;;;;;;;;;;;;;;;;;;;;
2022/04/06 14:59:33;;;;;;;;;;;;;;;13.99;53.37;98705.00;1881029;93;20664;-81
2022/04/06 15:06:20;;;;;;;;;;;;;;;13.97;53.18;98693.23;1762839;96;20228;-84
2022/04/06 15:13:03;;;;;;;;;;;;;;;;;;;;;
2022/04/06 15:23:05;;;;;;;;;;;;;;;;;;;;;
2022/04/06 15:26:09;;;;;;;;;;;;;;;13.72;53.18;98685.31;1794677;98;20573;-82
2022/04/06 15:29:31;;;;;;;;;;;;;;;13.72;53.41;98691.98;1785553;96;20217;-83
2022/04/06 15:39:50;;;;;;;;;;;;;;;;;;;;;
2022/04/06 15:43:34;;;;;;;;;;;;;;;13.70;52.43;98680.72;1970329;88;20251;-82
2022/04/06 15:47:12;;;;;;;;;;;;;;;;;;;;;
2022/04/06 15:52:50;;;;;;;;;;;;;;;13.52;52.62;98652.74;2082953;82;20115;-81
2022/04/06 15:55:51;;;;;;;;;;;;;;;13.47;52.96;98666.72;2148353;81;20176;-83
2022/04/06 15:58:53;;;;;;;;;;;;;;;13.45;53.42;98668.25;2131715;81;20155;-82
2022/04/06 16:01:54;;;;;;;;;;;;;;;13.43;53.49;98672.17;2125807;83;20535;-82
2022/04/06 16:04:55;;;;;;;;;;;;;;;13.41;53.72;98668.41;2131378;83;20151;-82
2022/04/06 16:07:56;;;;;;;;;;;;;;;13.40;53.58;98664.12;2154473;81;20153;-82
2022/04/06 16:10:58;;;;;;;;;;;;;;;13.38;53.63;98663.53;2163995;81;20174;-83
2022/04/06 16:13:59;;;;;;;;;;;;;;;13.37;53.82;98667.20;2167889;81;20160;-83
2022/04/06 16:17:01;;;;;;;;;;;;;;;13.36;54.10;98666.92;2165427;81;20178;-81
2022/04/06 16:20:04;;;;;;;;;;;;;;;13.35;54.55;98661.31;2165241;81;20154;-83
2022/04/06 16:23:06;;;;;;;;;;;;;;;13.33;54.49;98650.05;2171708;81;20153;-85
2022/04/06 16:26:07;;;;;;;;;;;;;;;13.30;54.76;98650.48;2165122;81;20407;-83
2022/04/06 16:29:09;;;;;;;;;;;;;;;13.28;54.83;98643.75;2167374;81;20135;-82
2022/04/06 16:32:10;;;;;;;;;;;;;;;13.24;55.04;98639.36;2168244;81;20132;-82
2022/04/06 16:35:11;;;;;;;;;;;;;;;13.19;55.40;98639.20;2165692;81;20449;-80
2022/04/06 16:38:12;;;;;;;;;;;;;;;13.12;55.52;98646.42;2164878;81;20154;-79
2022/04/06 16:41:13;;;;;;;;;;;;;;;13.03;55.57;98644.55;2163309;81;20119;-80
2022/04/06 16:44:15;;;;;;;;;;;;;;;12.97;55.71;98644.91;2171108;81;20123;-81
2022/04/06 16:47:17;;;;;;;;;;;;;;;12.90;55.70;98642.02;2170692;80;20159;-81